Time;durP1;ratioP1;P1;durP2;ratioP2;P2;SDS_P1;SDS_P2;PMS_P1;PMS_P2;Temp;Humidity;BMP_temperature;BMP_pressure;BME280_temperature;BME280_humidity;BME280_pressure;Samples;Min_cycle;Max_cycle;Signal;HPM_P1;HPM_P2
2021/11/01 00:01:36;;;;;;;31.70;4.43;;;;;;;;;;5048791;28;20413;-66
2021/11/01 00:04:03;;;;;;;25.50;4.32;;;;;;;;;;5029406;28;20114;-67
2021/11/01 00:06:30;;;;;;;26.25;5.32;;;;;;;;;;5048789;28;20488;-67
2021/11/01 00:08:57;;;;;;;27.25;5.10;;;;;;;;;;5073558;28;20113;-67
2021/11/01 00:11:23;;;;;;;35.75;5.50;;;;;;;;;;5047434;28;20528;-66
2021/11/01 00:13:50;;;;;;;28.38;4.60;;;;;;;;;;5048536;28;20043;-66
2021/11/01 00:16:16;;;;;;;29.05;4.47;;;;;;;;;;5048810;28;20102;-66
2021/11/01 00:18:43;;;;;;;29.33;4.95;;;;;;;;;;5074644;28;20073;-66
2021/11/01 00:21:09;;;;;;;25.55;5.20;;;;;;;;;;5044843;28;20047;-66
2021/11/01 00:23:35;;;;;;;27.30;4.72;;;;;;;;;;5050407;28;20458;-66
2021/11/01 00:26:02;;;;;;;31.00;5.82;;;;;;;;;;5049192;28;20156;-66
2021/11/01 00:28:29;;;;;;;36.92;5.93;;;;;;;;;;5048336;28;20132;-67
2021/11/01 00:30:56;;;;;;;25.90;5.22;;;;;;;;;;5049786;28;20087;-66
2021/11/01 00:33:23;;;;;;;28.35;6.05;;;;;;;;;;5048188;28;20041;-66
2021/11/01 00:35:50;;;;;;;32.47;5.93;;;;;;;;;;5053479;28;20527;-66
2021/11/01 00:38:16;;;;;;;37.05;5.53;;;;;;;;;;5048946;28;20087;-67
2021/11/01 00:40:42;;;;;;;28.27;4.10;;;;;;;;;;5047131;28;20053;-66
2021/11/01 00:43:09;;;;;;;33.42;5.75;;;;;;;;;;5057398;28;20128;-66
2021/11/01 00:45:35;;;;;;;26.65;4.50;;;;;;;;;;5049676;28;20108;-66
2021/11/01 00:48:02;;;;;;;22.85;5.20;;;;;;;;;;5049570;28;20052;-66
2021/11/01 00:50:29;;;;;;;25.08;5.35;;;;;;;;;;5052499;28;20037;-66
2021/11/01 00:52:56;;;;;;;34.10;5.97;;;;;;;;;;5051665;28;20075;-66
2021/11/01 00:55:24;;;;;;;26.85;4.95;;;;;;;;;;5051222;28;20503;-67
2021/11/01 00:57:50;;;;;;;30.13;4.63;;;;;;;;;;5051604;28;20085;-67
2021/11/01 01:00:17;;;;;;;29.92;5.82;;;;;;;;;;5049901;28;20074;-67
2021/11/01 01:02:44;;;;;;;30.27;5.07;;;;;;;;;;5042979;28;20419;-66
2021/11/01 01:05:11;;;;;;;28.00;4.60;;;;;;;;;;5068008;28;20583;-67
2021/11/01 01:07:37;;;;;;;29.35;4.68;;;;;;;;;;5043968;28;20051;-67
2021/11/01 01:10:04;;;;;;;26.38;4.20;;;;;;;;;;5050087;28;20052;-67
2021/11/01 01:12:31;;;;;;;25.30;5.22;;;;;;;;;;5051573;28;20484;-67
2021/11/01 01:14:59;;;;;;;26.25;5.60;;;;;;;;;;5051010;28;20087;-67
2021/11/01 01:17:26;;;;;;;41.08;6.18;;;;;;;;;;5048482;28;20364;-66
2021/11/01 01:20:09;;;;;;;32.00;5.80;;;;;;;;;;5047619;28;20076;-66
2021/11/01 01:22:36;;;;;;;32.17;6.40;;;;;;;;;;5031506;28;20140;-66
2021/11/01 01:25:24;;;;;;;27.83;5.35;;;;;;;;;;5044092;28;20123;-66
2021/11/01 01:27:51;;;;;;;21.52;4.32;;;;;;;;;;5072175;28;20119;-66
2021/11/01 01:30:17;;;;;;;23.15;3.80;;;;;;;;;;5049763;28;20056;-66
2021/11/01 01:32:44;;;;;;;28.48;4.00;;;;;;;;;;5044984;28;20118;-67
2021/11/01 01:35:11;;;;;;;31.92;4.72;;;;;;;;;;5043336;28;20045;-67
2021/11/01 01:37:37;;;;;;;27.05;4.22;;;;;;;;;;5039659;28;20048;-67
2021/11/01 01:40:07;;;;;;;19.15;4.22;;;;;;;;;;5041754;28;20041;-66
2021/11/01 01:42:34;;;;;;;29.67;7.28;;;;;;;;;;5045557;28;20048;-66
2021/11/01 01:45:00;;;;;;;20.38;4.03;;;;;;;;;;5044235;28;20053;-66
2021/11/01 01:47:26;;;;;;;23.75;4.10;;;;;;;;;;5047630;28;20049;-66
2021/11/01 01:49:52;;;;;;;24.38;4.25;;;;;;;;;;5071463;28;20033;-67
2021/11/01 01:52:21;;;;;;;22.58;3.85;;;;;;;;;;5049507;28;20060;-66
2021/11/01 01:54:47;;;;;;;23.92;3.95;;;;;;;;;;5050503;28;20102;-67
2021/11/01 01:57:15;;;;;;;23.13;3.90;;;;;;;;;;5047276;28;20060;-66
2021/11/01 01:59:43;;;;;;;34.90;7.35;;;;;;;;;;5046263;28;20045;-67
2021/11/01 02:02:09;;;;;;;27.90;4.20;;;;;;;;;;5049723;28;20497;-66
2021/11/01 02:04:37;;;;;;;26.88;4.68;;;;;;;;;;5060672;28;20045;-67
2021/11/01 02:07:18;;;;;;;26.90;4.50;;;;;;;;;;5066328;28;20381;-67
2021/11/01 02:09:50;;;;;;;24.38;4.10;;;;;;;;;;5044475;28;20076;-66
2021/11/01 02:12:19;;;;;;;27.83;4.93;;;;;;;;;;5050881;28;20397;-67
2021/11/01 02:14:49;;;;;;;22.90;4.10;;;;;;;;;;5050334;28;20045;-67
2021/11/01 02:17:18;;;;;;;23.35;4.47;;;;;;;;;;5048984;28;20551;-66
2021/11/01 02:19:47;;;;;;;21.95;4.22;;;;;;;;;;5050216;28;20041;-66
2021/11/01 02:22:17;;;;;;;32.00;4.22;;;;;;;;;;5052411;28;20044;-66
2021/11/01 02:24:51;;;;;;;15.15;3.78;;;;;;;;;;5052101;28;20124;-67
2021/11/01 02:27:19;;;;;;;30.25;4.18;;;;;;;;;;5049689;28;20453;-66
2021/11/01 02:29:46;;;;;;;18.98;3.40;;;;;;;;;;5055364;28;20043;-66
2021/11/01 02:32:13;;;;;;;19.95;4.20;;;;;;;;;;5076005;28;20099;-66
2021/11/01 02:34:41;;;;;;;24.63;4.20;;;;;;;;;;5054247;28;20067;-66
2021/11/01 02:37:07;;;;;;;22.58;3.80;;;;;;;;;;5055004;28;20045;-66
2021/11/01 02:39:45;;;;;;;17.35;3.85;;;;;;;;;;5050003;28;20052;-66
2021/11/01 02:42:11;;;;;;;23.77;5.18;;;;;;;;;;5054477;28;20075;-66
2021/11/01 02:44:37;;;;;;;23.67;3.58;;;;;;;;;;5056256;28;20048;-66
2021/11/01 02:47:04;;;;;;;25.70;4.85;;;;;;;;;;5050270;28;20044;-67
2021/11/01 02:49:30;;;;;;;24.95;5.20;;;;;;;;;;5053888;28;20041;-67
2021/11/01 02:51:56;;;;;;;22.95;4.47;;;;;;;;;;5057590;28;20551;-67
2021/11/01 02:54:22;;;;;;;20.30;4.20;;;;;;;;;;5053891;28;20056;-66
2021/11/01 02:56:48;;;;;;;18.60;4.20;;;;;;;;;;5046564;28;20053;-67
2021/11/01 02:59:15;;;;;;;24.08;3.97;;;;;;;;;;5043771;28;20068;-67
2021/11/01 03:01:41;;;;;;;25.45;4.25;;;;;;;;;;5046766;28;20051;-67
2021/11/01 03:04:07;;;;;;;18.67;3.28;;;;;;;;;;5039757;28;20041;-66
2021/11/01 03:06:34;;;;;;;17.55;3.50;;;;;;;;;;5043950;28;20499;-67
2021/11/01 03:09:01;;;;;;;23.85;3.75;;;;;;;;;;5041811;28;20091;-66
2021/11/01 03:11:28;;;;;;;24.83;4.18;;;;;;;;;;5044473;28;20433;-66
2021/11/01 03:13:54;;;;;;;21.83;6.28;;;;;;;;;;5073706;28;20072;-67
2021/11/01 03:16:21;;;;;;;17.67;3.63;;;;;;;;;;5046886;28;20080;-67
2021/11/01 03:18:49;;;;;;;20.48;3.13;;;;;;;;;;5075624;28;20076;-67
2021/11/01 03:21:17;;;;;;;20.63;3.70;;;;;;;;;;5051198;28;20518;-67
2021/11/01 03:23:48;;;;;;;21.20;4.47;;;;;;;;;;5045584;28;20056;-66
2021/11/01 03:26:16;;;;;;;18.15;2.85;;;;;;;;;;5047310;28;20041;-66
2021/11/01 03:28:47;;;;;;;21.42;3.35;;;;;;;;;;5047876;28;20484;-67
2021/11/01 03:31:14;;;;;;;17.73;3.58;;;;;;;;;;5071161;28;20119;-66
2021/11/01 03:33:40;;;;;;;17.98;3.38;;;;;;;;;;5049008;28;20140;-67
2021/11/01 03:36:08;;;;;;;24.02;3.67;;;;;;;;;;5045473;28;20083;-66
2021/11/01 03:38:36;;;;;;;20.38;3.13;;;;;;;;;;5049369;28;20060;-67
2021/11/01 03:41:09;;;;;;;14.52;3.40;;;;;;;;;;5034400;28;20067;-67
2021/11/01 03:43:42;;;;;;;21.15;4.53;;;;;;;;;;5050374;28;20044;-66
2021/11/01 03:46:09;;;;;;;19.98;4.30;;;;;;;;;;5052080;28;20068;-67
2021/11/01 03:48:39;;;;;;;18.33;3.22;;;;;;;;;;5049033;28;20484;-66
2021/11/01 03:51:09;;;;;;;13.48;3.53;;;;;;;;;;5046099;28;20119;-67
2021/11/01 03:53:36;;;;;;;19.73;3.58;;;;;;;;;;5044786;28;20049;-67
2021/11/01 03:56:03;;;;;;;22.55;3.67;;;;;;;;;;5054058;28;20115;-66
2021/11/01 03:58:30;;;;;;;20.27;4.10;;;;;;;;;;5043052;28;20404;-67
2021/11/01 04:00:56;;;;;;;27.15;4.65;;;;;;;;;;5072198;28;20053;-67
2021/11/01 04:03:24;;;;;;;21.23;3.40;;;;;;;;;;5053647;28;20084;-67
2021/11/01 04:05:55;;;;;;;15.82;3.15;;;;;;;;;;5048861;28;20110;-67
2021/11/01 04:08:21;;;;;;;18.13;3.45;;;;;;;;;;5045838;28;20081;-66
2021/11/01 04:10:48;;;;;;;19.05;3.72;;;;;;;;;;5042072;28;20449;-66
2021/11/01 04:13:14;;;;;;;22.42;3.50;;;;;;;;;;5074063;28;20048;-67
2021/11/01 04:15:44;;;;;;;18.85;4.50;;;;;;;;;;5071476;28;20056;-66
2021/11/01 04:18:12;;;;;;;14.50;3.15;;;;;;;;;;5050951;28;20079;-67
2021/11/01 04:20:51;;;;;;;23.48;3.65;;;;;;;;;;5046446;28;20040;-67
2021/11/01 04:23:19;;;;;;;19.52;3.20;;;;;;;;;;5049966;28;20048;-66
2021/11/01 04:25:45;;;;;;;18.10;2.70;;;;;;;;;;5048580;28;20045;-67
2021/11/01 04:28:12;;;;;;;14.25;2.47;;;;;;;;;;5049668;28;20034;-67
2021/11/01 04:30:41;;;;;;;17.90;3.30;;;;;;;;;;5045473;28;20056;-66
2021/11/01 04:33:09;;;;;;;20.85;3.90;;;;;;;;;;5044894;28;20120;-66
2021/11/01 04:35:37;;;;;;;18.38;3.60;;;;;;;;;;5044281;28;20045;-66
2021/11/01 04:38:13;;;;;;;12.85;2.60;;;;;;;;;;5050580;28;20491;-67
2021/11/01 04:40:55;;;;;;;16.13;3.25;;;;;;;;;;5044178;28;20060;-66
2021/11/01 04:43:54;;;;;;;12.00;3.90;;;;;;;;;;5049266;28;20064;-67
2021/11/01 04:54:32;;;;;;;13.98;2.97;;;;;;;;;;5072615;28;20045;-67
2021/11/01 04:56:58;;;;;;;19.10;2.85;;;;;;;;;;5047282;28;20106;-67
2021/11/01 04:59:25;;;;;;;12.05;2.40;;;;;;;;;;5047931;28;20059;-66
2021/11/01 05:01:52;;;;;;;10.95;2.28;;;;;;;;;;5043655;28;20511;-67
2021/11/01 05:04:23;;;;;;;11.13;2.42;;;;;;;;;;5048061;28;20056;-66
2021/11/01 05:06:53;;;;;;;20.05;3.65;;;;;;;;;;5049564;28;20124;-66
2021/11/01 05:09:29;;;;;;;10.38;2.63;;;;;;;;;;5051034;28;20044;-67
2021/11/01 05:12:03;;;;;;;13.65;2.90;;;;;;;;;;5073958;28;20084;-67
2021/11/01 05:17:24;;;;;;;12.70;2.75;;;;;;;;;;5042690;28;20433;-66
2021/11/01 05:20:02;;;;;;;14.70;2.33;;;;;;;;;;5069016;28;20138;-66
2021/11/01 05:22:32;;;;;;;12.43;2.20;;;;;;;;;;5049581;28;20036;-66
2021/11/01 05:25:09;;;;;;;14.13;2.88;;;;;;;;;;5045605;28;20053;-66
2021/11/01 05:30:16;;;;;;;21.50;3.45;;;;;;;;;;5044999;28;20045;-66
2021/11/01 05:32:52;;;;;;;14.35;2.80;;;;;;;;;;5044997;28;20377;-67
2021/11/01 05:35:19;;;;;;;12.77;2.70;;;;;;;;;;5044385;28;20496;-66
2021/11/01 05:37:45;;;;;;;12.63;2.83;;;;;;;;;;5044661;28;20110;-67
2021/11/01 05:40:12;;;;;;;19.48;3.50;;;;;;;;;;5046899;28;20103;-66
2021/11/01 05:42:38;;;;;;;12.93;3.20;;;;;;;;;;5041544;28;20045;-66
2021/11/01 05:45:04;;;;;;;14.50;3.58;;;;;;;;;;5050431;28;20057;-67
2021/11/01 05:47:30;;;;;;;13.63;2.88;;;;;;;;;;5052281;28;20469;-66
2021/11/01 05:49:57;;;;;;;12.52;2.72;;;;;;;;;;5045466;28;20500;-66
2021/11/01 05:52:28;;;;;;;13.23;3.20;;;;;;;;;;5047891;28;20075;-67
2021/11/01 05:54:59;;;;;;;21.73;3.10;;;;;;;;;;5048678;28;20462;-67
2021/11/01 05:57:41;;;;;;;18.48;3.90;;;;;;;;;;5045915;28;20408;-76
2021/11/01 06:00:18;;;;;;;13.30;2.67;;;;;;;;;;5073877;28;20053;-66
2021/11/01 06:02:48;;;;;;;13.82;3.35;;;;;;;;;;5050125;28;20496;-80
2021/11/01 06:05:26;;;;;;;12.50;2.90;;;;;;;;;;5049666;28;20106;-67
2021/11/01 06:08:09;;;;;;;14.82;2.78;;;;;;;;;;5048456;28;20182;-66
2021/11/01 06:13:29;;;;;;;16.92;3.10;;;;;;;;;;5048907;28;20041;-67
2021/11/01 06:15:57;;;;;;;16.13;2.72;;;;;;;;;;5045354;28;20045;-67
2021/11/01 06:18:33;;;;;;;15.07;3.13;;;;;;;;;;5047494;28;20036;-67
2021/11/01 06:20:59;;;;;;;11.00;2.55;;;;;;;;;;5072694;28;20049;-66
2021/11/01 06:23:25;;;;;;;18.73;2.75;;;;;;;;;;5046149;28;21208;-67
2021/11/01 06:25:52;;;;;;;21.73;3.35;;;;;;;;;;5046857;28;20107;-67
2021/11/01 06:28:18;;;;;;;19.25;2.88;;;;;;;;;;5040979;28;20489;-67
2021/11/01 06:30:51;;;;;;;11.32;2.92;;;;;;;;;;5049217;28;20051;-67
2021/11/01 06:44:18;;;;;;;23.15;3.90;;;;;;;;;;5057071;28;20056;-66
2021/11/01 06:57:25;;;;;;;17.58;3.30;;;;;;;;;;5051358;28;20093;-66
2021/11/01 07:16:30;;;;;;;14.63;4.25;;;;;;;;;;5045396;28;20045;-67
2021/11/01 07:19:03;;;;;;;20.60;5.47;;;;;;;;;;5048665;28;20059;-67
2021/11/01 07:21:50;;;;;;;14.52;3.88;;;;;;;;;;5050058;28;20053;-67
2021/11/01 08:24:50;;;;;;;14.35;4.55;;;;;;;;;;5047169;28;20137;-67
2021/11/01 08:27:55;;;;;;;12.00;3.72;;;;;;;;;;5054081;28;20041;-67
2021/11/01 08:41:10;;;;;;;17.70;4.20;;;;;;;;;;5047029;28;20064;-67
2021/11/01 08:44:07;;;;;;;13.32;3.88;;;;;;;;;;5044122;28;20053;-67
2021/11/01 08:46:50;;;;;;;14.52;3.75;;;;;;;;;;5040382;28;20057;-66
2021/11/01 08:49:43;;;;;;;17.67;3.95;;;;;;;;;;5043635;28;20094;-66
2021/11/01 09:01:24;;;;;;;23.67;4.10;;;;;;;;;;5051840;28;20110;-66
2021/11/01 09:03:26;;;;;;;15.85;4.25;;;;;;;;;;5046560;28;20388;-66
2021/11/01 09:21:42;;;;;;;11.48;3.28;;;;;;;;;;5046119;28;20374;-65
2021/11/01 09:26:54;;;;;;;9.23;2.65;;;;;;;;;;5049282;28;20045;-66
2021/11/01 09:37:41;;;;;;;13.20;2.97;;;;;;;;;;5043389;28;20060;-66
2021/11/01 09:42:54;;;;;;;15.55;3.30;;;;;;;;;;5040208;28;20044;-66
2021/11/01 09:45:21;;;;;;;13.40;3.20;;;;;;;;;;5045889;28;20087;-66
2021/11/01 09:47:48;;;;;;;15.70;3.00;;;;;;;;;;5048050;28;20413;-66
2021/11/01 09:50:16;;;;;;;16.73;3.58;;;;;;;;;;5044757;28;20377;-68
2021/11/01 09:52:43;;;;;;;8.00;3.17;;;;;;;;;;5045983;28;20053;-67
2021/11/01 09:55:47;;;;;;;10.48;3.10;;;;;;;;;;5042093;28;20166;-66
2021/11/01 10:00:42;;;;;;;12.75;3.25;;;;;;;;;;5074193;28;20049;-66
2021/11/01 10:03:08;;;;;;;12.45;2.78;;;;;;;;;;5047302;28;20490;-66
2021/11/01 10:05:36;;;;;;;9.27;2.50;;;;;;;;;;5049293;28;20060;-66
2021/11/01 10:08:04;;;;;;;16.73;3.35;;;;;;;;;;5046114;28;20373;-66
2021/11/01 10:10:39;;;;;;;11.45;3.30;;;;;;;;;;5045221;28;20437;-66
2021/11/01 10:13:12;;;;;;;11.15;3.00;;;;;;;;;;5074400;28;20045;-66
2021/11/01 10:18:23;;;;;;;9.15;2.80;;;;;;;;;;5050883;28;20043;-66
2021/11/01 10:20:52;;;;;;;10.73;2.85;;;;;;;;;;5041203;28;20066;-66
2021/11/01 10:23:20;;;;;;;8.40;2.97;;;;;;;;;;5065968;28;20045;-66
2021/11/01 10:25:47;;;;;;;11.23;2.35;;;;;;;;;;5043549;28;20049;-66
2021/11/01 10:28:13;;;;;;;9.27;2.67;;;;;;;;;;5044792;28;20112;-65
2021/11/01 10:30:40;;;;;;;12.75;2.45;;;;;;;;;;5046631;28;20056;-66
2021/11/01 10:33:08;;;;;;;9.98;2.53;;;;;;;;;;5049949;28;20087;-66
2021/11/01 10:35:37;;;;;;;9.23;2.33;;;;;;;;;;5051742;28;20064;-66
2021/11/01 10:40:45;;;;;;;7.78;1.92;;;;;;;;;;5051509;28;20460;-66
2021/11/01 10:43:36;;;;;;;9.48;2.40;;;;;;;;;;5050846;28;20063;-66
2021/11/01 11:13:20;;;;;;;13.57;2.30;;;;;;;;;;5057766;28;20056;-66
2021/11/01 11:15:51;;;;;;;7.40;2.30;;;;;;;;;;5046028;28;20111;-67
2021/11/01 11:21:15;;;;;;;11.85;2.72;;;;;;;;;;5041606;28;20464;-67
2021/11/01 11:24:27;;;;;;;12.18;2.80;;;;;;;;;;5040620;28;20120;-67
2021/11/01 11:32:10;;;;;;;7.15;1.70;;;;;;;;;;5074053;28;20053;-67
2021/11/01 11:37:46;;;;;;;8.15;1.92;;;;;;;;;;5044068;28;20087;-67
2021/11/01 11:48:45;;;;;;;6.55;1.60;;;;;;;;;;5040516;28;20338;-66
2021/11/01 11:51:12;;;;;;;8.23;1.73;;;;;;;;;;5037111;28;20045;-66
2021/11/01 11:53:57;;;;;;;6.57;1.40;;;;;;;;;;5041137;28;20060;-66
2021/11/01 11:56:27;;;;;;;8.93;1.90;;;;;;;;;;5048816;28;20051;-66
2021/11/01 11:58:57;;;;;;;9.23;2.03;;;;;;;;;;5054570;28;20040;-66
2021/11/01 12:01:25;;;;;;;8.77;1.67;;;;;;;;;;5051455;28;20056;-66
2021/11/01 12:03:52;;;;;;;5.78;1.52;;;;;;;;;;5050183;28;20424;-66
2021/11/01 12:06:22;;;;;;;7.88;2.20;;;;;;;;;;5050020;28;20084;-66
2021/11/01 12:08:57;;;;;;;6.97;1.67;;;;;;;;;;5047122;28;20216;-66
2021/11/01 12:11:33;;;;;;;8.82;1.67;;;;;;;;;;5051786;28;20090;-66
2021/11/01 12:14:20;;;;;;;6.40;1.20;;;;;;;;;;5048773;28;20459;-66
2021/11/01 12:17:11;;;;;;;13.95;1.98;;;;;;;;;;5049605;28;20378;-66
2021/11/01 12:19:38;;;;;;;9.82;1.67;;;;;;;;;;5051024;28;20125;-66
2021/11/01 12:22:07;;;;;;;6.97;1.30;;;;;;;;;;5038443;28;20041;-66
2021/11/01 12:24:34;;;;;;;7.15;1.27;;;;;;;;;;5046103;28;20056;-66
2021/11/01 12:27:02;;;;;;;7.22;1.35;;;;;;;;;;5047147;28;20130;-67
2021/11/01 12:29:30;;;;;;;4.15;0.95;;;;;;;;;;5047185;28;20179;-66
2021/11/01 12:32:00;;;;;;;5.30;1.10;;;;;;;;;;5040183;28;20409;-66
2021/11/01 12:34:27;;;;;;;8.82;1.67;;;;;;;;;;5045720;28;20057;-66
2021/11/01 12:37:04;;;;;;;7.03;1.35;;;;;;;;;;5048603;28;20480;-66
2021/11/01 12:39:36;;;;;;;5.93;1.30;;;;;;;;;;5043828;28;20072;-66
2021/11/01 12:42:22;;;;;;;4.70;1.52;;;;;;;;;;5044658;28;20045;-66
2021/11/01 12:58:21;;;;;;;4.38;0.95;;;;;;;;;;5045438;28;20471;-66
2021/11/01 13:00:47;;;;;;;7.15;1.15;;;;;;;;;;5049087;28;20049;-66
2021/11/01 13:03:17;;;;;;;6.72;1.40;;;;;;;;;;5082243;28;20048;-66
2021/11/01 13:05:47;;;;;;;6.65;1.20;;;;;;;;;;5048257;28;20041;-66
2021/11/01 13:08:20;;;;;;;7.53;1.33;;;;;;;;;;5049058;28;20073;-66
2021/11/01 13:10:52;;;;;;;6.90;1.20;;;;;;;;;;5049768;28;20048;-66
2021/11/01 13:18:38;;;;;;;10.50;1.50;;;;;;;;;;5071365;28;20128;-65
2021/11/01 13:21:09;;;;;;;7.50;1.27;;;;;;;;;;5048116;28;20043;-65
2021/11/01 13:23:37;;;;;;;4.00;0.98;;;;;;;;;;5043215;28;20107;-65
2021/11/01 13:26:22;;;;;;;8.57;1.65;;;;;;;;;;5044419;28;20432;-66
2021/11/01 13:29:05;;;;;;;7.85;1.25;;;;;;;;;;5046281;28;20041;-66
2021/11/01 13:36:46;;;;;;;3.60;0.90;;;;;;;;;;5046791;28;20416;-66
2021/11/01 13:39:22;;;;;;;6.70;1.30;;;;;;;;;;5046803;28;20117;-65
2021/11/01 13:41:48;;;;;;;6.55;1.20;;;;;;;;;;5049899;28;20369;-69
2021/11/01 13:44:15;;;;;;;5.20;1.15;;;;;;;;;;5047811;28;20045;-66
2021/11/01 13:46:44;;;;;;;5.78;1.55;;;;;;;;;;5050312;28;20030;-66
2021/11/01 13:49:11;;;;;;;7.97;1.30;;;;;;;;;;5038269;28;20114;-65
2021/11/01 13:51:37;;;;;;;7.65;1.10;;;;;;;;;;5049756;28;20402;-65
2021/11/01 13:56:39;;;;;;;5.15;1.58;;;;;;;;;;5045609;28;20071;-65
2021/11/01 13:59:23;;;;;;;5.60;1.17;;;;;;;;;;5048839;28;20044;-65
2021/11/01 14:02:05;;;;;;;;;;;;;;;;;;5042789;28;20057;-65
2021/11/01 14:12:53;;;;;;;5.03;1.30;;;;;;;;;;5057993;28;20547;-65
2021/11/01 14:15:57;;;;;;;6.32;1.02;;;;;;;;;;5054571;28;20045;-65
2021/11/01 14:26:49;;;;;;;5.07;1.00;;;;;;;;;;5052977;28;20393;-65
2021/11/01 14:31:57;;;;;;;6.93;1.02;;;;;;;;;;5053499;28;20159;-66
2021/11/01 14:55:00;;;;;;;4.50;0.82;;;;;;;;;;5053246;28;20064;-66
2021/11/01 14:57:24;;;;;;;5.47;1.10;;;;;;;;;;5053644;28;20041;-67
2021/11/01 15:02:50;;;;;;;5.10;1.38;;;;;;;;;;5062818;28;20530;-67
2021/11/01 15:06:29;;;;;;;7.57;1.50;;;;;;;;;;5054764;28;20519;-67
2021/11/01 15:08:36;;;;;;;4.15;1.20;;;;;;;;;;5048891;28;20067;-67
2021/11/01 15:16:27;;;;;;;6.95;1.23;;;;;;;;;;5044029;28;20513;-67
2021/11/01 15:19:15;;;;;;;4.75;1.08;;;;;;;;;;5043444;28;20044;-67
2021/11/01 15:21:58;;;;;;;3.38;1.05;;;;;;;;;;5045231;28;20041;-67
2021/11/01 15:27:24;;;;;;;9.50;1.65;;;;;;;;;;5040890;28;20037;-67
2021/11/01 15:32:51;;;;;;;5.32;2.08;;;;;;;;;;5047772;28;20578;-67
2021/11/01 15:35:36;;;;;;;7.47;1.35;;;;;;;;;;5060971;28;20737;-67
2021/11/01 15:40:46;;;;;;;6.05;1.67;;;;;;;;;;5052659;28;20505;-67
2021/11/01 16:16:45;;;;;;;8.20;1.90;;;;;;;;;;5078120;28;20041;-67
2021/11/01 16:19:09;;;;;;;4.55;1.70;;;;;;;;;;5046197;28;20053;-67
2021/11/01 16:21:35;;;;;;;9.25;2.42;;;;;;;;;;5049346;28;20052;-67
2021/11/01 16:24:02;;;;;;;6.93;2.45;;;;;;;;;;5045329;28;20033;-67
2021/11/01 16:26:30;;;;;;;7.55;1.80;;;;;;;;;;5048734;28;20094;-67
2021/11/01 16:29:03;;;;;;;8.80;2.47;;;;;;;;;;5045577;28;20059;-67
2021/11/01 16:34:01;;;;;;;11.45;2.60;;;;;;;;;;5044109;28;20179;-67
2021/11/01 16:39:17;;;;;;;9.82;2.50;;;;;;;;;;5045928;28;20485;-67
2021/11/01 16:41:45;;;;;;;10.05;3.03;;;;;;;;;;5047586;28;20052;-67
2021/11/01 16:44:22;;;;;;;6.38;2.13;;;;;;;;;;5043909;28;20045;-67
2021/11/01 16:46:49;;;;;;;10.02;2.38;;;;;;;;;;5075884;28;20045;-67
2021/11/01 16:49:17;;;;;;;10.70;2.75;;;;;;;;;;5042273;28;20389;-67
2021/11/01 16:51:43;;;;;;;9.20;2.88;;;;;;;;;;5031566;28;20037;-67
2021/11/01 16:54:13;;;;;;;8.40;2.75;;;;;;;;;;5042443;28;20041;-67
2021/11/01 16:56:51;;;;;;;8.60;2.42;;;;;;;;;;5045167;28;20438;-67
2021/11/01 16:59:32;;;;;;;12.32;3.13;;;;;;;;;;5042497;28;20413;-67
2021/11/01 17:02:19;;;;;;;16.52;3.10;;;;;;;;;;5050473;28;20083;-66
2021/11/01 17:04:50;;;;;;;8.38;2.88;;;;;;;;;;5039262;28;20079;-67
2021/11/01 17:07:34;;;;;;;11.48;2.63;;;;;;;;;;5042139;28;20045;-67
2021/11/01 17:24:03;;;;;;;10.52;3.40;;;;;;;;;;5039115;28;20045;-75
2021/11/01 17:26:30;;;;;;;9.10;2.80;;;;;;;;;;5042367;28;20076;-66
2021/11/01 17:34:44;;;;;;;12.65;2.55;;;;;;;;;;5035718;28;20057;-66
2021/11/01 17:37:30;;;;;;;11.02;2.95;;;;;;;;;;5040817;28;20142;-66
2021/11/01 18:38:07;;;;;;;9.30;1.92;;;;;;;;;;5045850;28;20049;-66
2021/11/01 18:40:39;;;;;;;11.65;2.15;;;;;;;;;;5048196;28;20114;-67
2021/11/01 18:43:27;;;;;;;8.45;2.17;;;;;;;;;;5045662;28;20048;-66
2021/11/01 18:51:30;;;;;;;6.32;2.08;;;;;;;;;;5046100;28;20045;-67
2021/11/01 18:53:59;;;;;;;9.07;2.25;;;;;;;;;;5050853;28;20047;-66
2021/11/01 18:56:34;;;;;;;10.90;2.33;;;;;;;;;;5049027;28;20128;-66
2021/11/01 18:59:01;;;;;;;8.18;2.17;;;;;;;;;;5050242;28;20107;-66
2021/11/01 19:01:29;;;;;;;6.22;2.10;;;;;;;;;;5052360;28;20053;-66
2021/11/01 19:03:57;;;;;;;14.20;3.47;;;;;;;;;;5055136;28;20068;-67
2021/11/01 19:06:36;;;;;;;7.70;2.90;;;;;;;;;;5051169;28;20124;-67
2021/11/01 19:09:21;;;;;;;9.77;2.85;;;;;;;;;;5051889;28;20044;-67
2021/11/01 19:12:39;;;;;;;7.88;2.72;;;;;;;;;;5048384;28;20048;-67
2021/11/01 19:15:38;;;;;;;10.98;2.45;;;;;;;;;;5052592;28;20045;-67
2021/11/01 20:02:27;;;;;;;10.77;2.33;;;;;;;;;;5051195;28;20492;-67
2021/11/01 20:13:20;;;;;;;7.13;2.40;;;;;;;;;;5053272;28;20052;-66
2021/11/01 21:24:50;;;;;;;6.50;2.63;;;;;;;;;;5054141;28;20060;-67
2021/11/01 21:27:18;;;;;;;5.00;2.38;;;;;;;;;;5051640;28;20488;-67
2021/11/01 21:29:44;;;;;;;9.93;2.97;;;;;;;;;;5049328;28;20048;-67
2021/11/01 21:32:10;;;;;;;4.47;2.53;;;;;;;;;;5045624;28;20040;-67
2021/11/01 21:34:39;;;;;;;6.32;2.88;;;;;;;;;;5040231;28;20520;-67
2021/11/01 21:37:06;;;;;;;8.18;3.38;;;;;;;;;;5043250;28;20450;-67
2021/11/01 21:39:33;;;;;;;7.82;3.40;;;;;;;;;;5040721;28;20353;-67
2021/11/01 21:42:00;;;;;;;5.93;3.20;;;;;;;;;;5065778;28;20045;-67
2021/11/01 21:44:27;;;;;;;8.05;3.30;;;;;;;;;;5041639;28;20049;-67
2021/11/01 21:46:53;;;;;;;7.72;3.42;;;;;;;;;;5041949;28;20069;-67
2021/11/01 21:49:19;;;;;;;6.75;3.58;;;;;;;;;;5042669;28;20527;-67
2021/11/01 21:51:47;;;;;;;6.63;3.85;;;;;;;;;;5039754;28;20044;-67
2021/11/01 21:56:52;;;;;;;6.82;3.85;;;;;;;;;;5043351;28;20049;-67
2021/11/01 21:59:51;;;;;;;6.30;3.60;;;;;;;;;;5042740;28;20048;-67
2021/11/01 22:16:40;;;;;;;8.32;3.85;;;;;;;;;;5042374;28;20524;-67
2021/11/01 22:19:18;;;;;;;7.35;3.58;;;;;;;;;;5043351;28;20060;-66
2021/11/01 22:21:51;;;;;;;5.90;3.80;;;;;;;;;;5051710;28;20036;-66
2021/11/01 22:24:25;;;;;;;6.40;3.15;;;;;;;;;;5046766;28;20140;-67
2021/11/01 22:34:48;;;;;;;6.20;3.28;;;;;;;;;;5053002;28;20044;-67
2021/11/01 22:40:22;;;;;;;7.90;4.00;;;;;;;;;;5057716;28;20045;-67
2021/11/01 22:42:56;;;;;;;8.13;3.88;;;;;;;;;;5051030;28;20486;-66
2021/11/01 22:45:27;;;;;;;6.72;3.80;;;;;;;;;;5052999;28;20045;-67
2021/11/01 22:48:14;;;;;;;7.30;4.00;;;;;;;;;;5049157;28;20434;-67
2021/11/01 22:56:03;;;;;;;7.78;3.95;;;;;;;;;;5047818;28;20041;-66
2021/11/01 22:58:30;;;;;;;8.48;4.10;;;;;;;;;;5054545;28;20112;-67
2021/11/01 23:00:59;;;;;;;6.20;4.05;;;;;;;;;;5063009;28;20064;-67
2021/11/01 23:03:31;;;;;;;6.70;4.40;;;;;;;;;;5045157;28;20058;-67
2021/11/01 23:33:08;;;;;;;9.27;5.63;;;;;;;;;;5054451;28;20041;-67
2021/11/01 23:35:34;;;;;;;9.52;6.25;;;;;;;;;;5074377;28;20099;-66
2021/11/01 23:38:02;;;;;;;11.57;6.43;;;;;;;;;;5050394;28;20048;-66
2021/11/01 23:40:28;;;;;;;10.98;6.20;;;;;;;;;;5051698;28;20439;-66
2021/11/01 23:42:54;;;;;;;11.27;6.70;;;;;;;;;;5048418;28;20048;-66
2021/11/01 23:45:20;;;;;;;9.50;6.30;;;;;;;;;;5053926;28;20117;-67
2021/11/01 23:47:46;;;;;;;13.35;7.20;;;;;;;;;;5050903;28;20079;-66
2021/11/01 23:50:13;;;;;;;11.38;7.13;;;;;;;;;;5050687;28;20029;-66
2021/11/01 23:52:42;;;;;;;12.48;7.38;;;;;;;;;;5048901;28;20171;-66
2021/11/01 23:55:09;;;;;;;12.60;7.63;;;;;;;;;;5045966;28;20400;-66
2021/11/01 23:57:35;;;;;;;12.02;7.50;;;;;;;;;;5050478;28;20473;-66
